Terminal Aerodrome Forecast
Issued by NWS Jackson, MS

Home | Current Version | Previous Version | Text Only | Print | Product List | Glossary On
Versions: 1 2 3 4 5 6 7 8 9 10 11 12 13 14 15 16
000
FTUS44 KJAN 210549 RRA
TAFMEI
TAF
KMEI 210549Z 2106/2206 17005KT 6SM BR BKN004
     FM210730 17004KT 5SM BR VCTS BKN090CB BKN250
     FM210900 22015G35KT 1SM +TSRA BKN008CB OVC090
     FM211130 06006KT 5SM -TSRA BR BKN008 OVC050CB
     FM211400 13006KT 3SM BR BKN008 BKN050
     FM211600 17007KT 6SM BR BKN050 BKN250
     FM212300 18005KT P6SM BKN015 BKN250=

USA.gov is the U.S. government's official web portal to all federal, state and local government web resources and services.